Time;durP1;ratioP1;P1;durP2;ratioP2;P2;SDS_P1;SDS_P2;PMS_P1;PMS_P2;Temp;Humidity;BMP_temperature;BMP_pressure;BME280_temperature;BME280_humidity;BME280_pressure;Samples;Min_cycle;Max_cycle;Signal;HPM_P1;HPM_P2
2023/02/16 00:00:20;;;;;;;53.63;26.27;;;5.40;99.90;;;;;;5053187;28;20482;-67
2023/02/16 00:02:46;;;;;;;47.77;25.53;;;5.20;99.90;;;;;;5052161;28;20134;-66
2023/02/16 00:08:03;;;;;;;47.88;25.65;;;5.10;99.90;;;;;;5111220;27;20351;-66
2023/02/16 00:10:32;;;;;;;49.53;26.38;;;4.90;99.90;;;;;;5111261;28;20040;-66
2023/02/16 00:15:44;;;;;;;44.75;24.60;;;4.70;99.90;;;;;;5110843;28;20054;-66
2023/02/16 00:18:16;;;;;;;50.35;26.95;;;4.50;99.90;;;;;;5111082;28;20024;-66
2023/02/16 00:20:42;;;;;;;52.65;27.08;;;4.40;99.90;;;;;;5111141;28;20099;-66
2023/02/16 00:23:07;;;;;;;49.42;26.48;;;4.40;99.90;;;;;;5110606;28;20051;-66
2023/02/16 00:25:33;;;;;;;51.53;28.10;;;4.30;99.90;;;;;;5110836;28;20102;-67
2023/02/16 00:28:13;;;;;;;50.47;28.35;;;4.20;99.90;;;;;;5110701;28;20089;-66
2023/02/16 00:30:39;;;;;;;52.38;27.88;;;4.10;99.90;;;;;;5109537;28;20420;-66
2023/02/16 00:33:15;;;;;;;54.72;28.88;;;4.10;99.90;;;;;;5110861;28;20031;-66
2023/02/16 00:35:41;;;;;;;53.53;28.45;;;4.10;99.90;;;;;;5110628;28;20409;-66
2023/02/16 00:38:06;;;;;;;50.97;27.48;;;4.00;99.90;;;;;;5110769;28;20028;-66
2023/02/16 00:40:33;;;;;;;52.28;28.50;;;3.90;99.90;;;;;;5110539;28;20389;-66
2023/02/16 00:42:59;;;;;;;56.60;29.60;;;3.80;99.90;;;;;;5110500;28;20024;-66
2023/02/16 00:45:25;;;;;;;56.03;28.73;;;3.80;99.90;;;;;;5110422;28;20027;-66
2023/02/16 00:47:52;;;;;;;61.67;31.20;;;3.80;99.90;;;;;;5110285;28;20028;-66
2023/02/16 00:50:24;;;;;;;63.28;32.20;;;3.80;99.90;;;;;;5109246;28;20452;-66
2023/02/16 00:52:50;;;;;;;42.03;22.50;;;3.70;99.90;;;;;;5110519;28;20058;-66
2023/02/16 00:55:18;;;;;;;56.28;29.50;;;3.60;99.90;;;;;;5110370;28;20366;-66
2023/02/16 00:57:52;;;;;;;62.45;29.73;;;3.60;99.90;;;;;;5109147;28;20081;-66
2023/02/16 01:02:59;;;;;;;57.10;31.35;;;3.50;99.90;;;;;;5111139;27;20755;-66
2023/02/16 01:05:25;;;;;;;56.78;30.05;;;3.30;99.90;;;;;;5111340;28;20028;-66
2023/02/16 01:13:25;;;;;;;55.88;29.23;;;3.20;99.90;;;;;;5110781;28;20081;-66
2023/02/16 01:15:51;;;;;;;59.47;30.15;;;3.10;99.90;;;;;;5109839;28;20481;-66
2023/02/16 01:18:18;;;;;;;63.95;32.60;;;3.10;99.90;;;;;;5109862;28;20420;-66
2023/02/16 01:20:44;;;;;;;64.70;32.80;;;3.10;99.90;;;;;;5110686;28;20024;-66
2023/02/16 01:23:10;;;;;;;62.20;32.30;;;3.00;99.90;;;;;;5110935;28;20020;-66
2023/02/16 01:25:37;;;;;;;71.80;34.05;;;3.00;99.90;;;;;;5110693;28;20493;-67
2023/02/16 01:28:14;;;;;;;78.55;35.20;;;3.00;99.90;;;;;;5110852;28;20024;-67
2023/02/16 01:30:39;;;;;;;66.93;33.25;;;3.10;99.90;;;;;;5109496;28;20020;-67
2023/02/16 01:33:05;;;;;;;65.75;34.78;;;3.20;99.90;;;;;;5110488;28;20031;-67
2023/02/16 01:35:32;;;;;;;70.25;36.22;;;3.30;99.90;;;;;;5110491;28;20505;-67
2023/02/16 01:37:58;;;;;;;73.65;35.67;;;3.30;99.90;;;;;;5110486;28;20058;-67
2023/02/16 01:40:35;;;;;;;70.25;35.58;;;3.30;99.90;;;;;;5110497;28;20020;-67
2023/02/16 01:43:13;;;;;;;63.88;33.60;;;3.40;99.90;;;;;;5109246;28;20119;-67
2023/02/16 01:45:44;;;;;;;70.72;35.00;;;3.40;99.90;;;;;;5109138;28;20044;-67
2023/02/16 01:48:19;;;;;;;69.30;34.47;;;3.30;99.90;;;;;;5110535;28;20367;-67
2023/02/16 01:50:53;;;;;;;60.67;32.42;;;3.40;99.90;;;;;;5110391;28;20020;-67
2023/02/16 01:53:42;;;;;;;67.72;33.80;;;3.30;99.90;;;;;;5110455;28;20030;-66
2023/02/16 01:56:20;;;;;;;63.95;32.03;;;3.20;99.90;;;;;;5110087;28;20478;-67
2023/02/16 01:58:51;;;;;;;68.32;34.30;;;3.10;99.90;;;;;;5110291;28;20036;-67
2023/02/16 02:01:41;;;;;;;68.18;33.10;;;3.10;99.90;;;;;;5109869;28;20055;-66
2023/02/16 02:07:00;;;;;;;61.95;31.65;;;3.00;99.90;;;;;;5109770;28;20024;-67
2023/02/16 02:09:41;;;;;;;66.03;32.67;;;2.90;99.90;;;;;;5110056;28;20424;-67
2023/02/16 02:12:26;;;;;;;67.15;32.78;;;2.90;99.90;;;;;;5109055;28;20522;-67
2023/02/16 02:14:51;;;;;;;68.47;33.38;;;2.90;99.90;;;;;;5096269;28;20112;-67
2023/02/16 02:17:19;;;;;;;68.45;34.30;;;2.90;99.90;;;;;;5096413;28;20452;-67
2023/02/16 02:23:29;;;;;;;74.25;34.35;;;2.90;99.90;;;;;;5096257;28;20379;-67
2023/02/16 02:23:37;;;;;;;62.92;31.65;;;2.90;99.90;;;;;;5095758;28;20046;-67
2023/02/16 02:26:34;;;;;;;67.80;32.88;;;2.80;99.90;;;;;;5095992;28;20107;-66
2023/02/16 02:29:14;;;;;;;68.32;33.97;;;2.80;99.90;;;;;;5095838;28;20028;-67
2023/02/16 02:31:59;;;;;;;67.45;34.40;;;2.80;99.90;;;;;;5095838;28;20110;-67
2023/02/16 02:34:47;;;;;;;73.22;35.97;;;2.70;99.90;;;;;;5095937;28;20024;-67
2023/02/16 02:37:27;;;;;;;71.30;35.20;;;2.70;99.90;;;;;;5095738;28;20110;-67
2023/02/16 02:45:51;;;;;;;72.03;35.47;;;2.80;99.90;;;;;;5111188;27;20877;-67
2023/02/16 02:48:17;;;;;;;50.03;25.50;;;2.80;99.90;;;;;;5111195;28;20036;-67
2023/02/16 02:53:42;;;;;;;69.25;33.67;;;2.80;99.90;;;;;;5110813;28;20121;-66
2023/02/16 03:01:58;;;;;;;71.60;33.95;;;3.00;99.90;;;;;;5110664;28;20111;-66
2023/02/16 03:04:27;;;;;;;66.90;32.45;;;3.00;99.90;;;;;;5110809;28;20019;-66
2023/02/16 03:06:56;;;;;;;69.35;34.30;;;2.90;99.90;;;;;;5111024;28;20035;-66
2023/02/16 03:09:22;;;;;;;65.03;32.88;;;2.90;99.90;;;;;;5110695;28;20019;-67
2023/02/16 03:14:45;;;;;;;65.43;32.95;;;2.80;99.90;;;;;;5110422;28;20397;-67
2023/02/16 03:31:19;;;;;;;68.90;32.33;;;2.70;99.90;;;;;;5110096;28;20508;-67
2023/02/16 03:33:45;;;;;;;68.38;34.05;;;2.70;99.90;;;;;;5110202;28;20099;-67
2023/02/16 03:36:11;;;;;;;68.90;33.70;;;2.60;99.90;;;;;;5110372;28;20020;-67
2023/02/16 03:38:38;;;;;;;69.95;37.65;;;2.60;99.90;;;;;;5110162;28;20023;-67
2023/02/16 03:41:04;;;;;;;74.70;39.35;;;2.60;99.90;;;;;;5110121;28;20016;-67
2023/02/16 03:43:30;;;;;;;70.00;38.28;;;2.60;99.90;;;;;;5109824;28;20044;-67
2023/02/16 03:45:56;;;;;;;81.97;40.30;;;2.50;99.90;;;;;;5110252;28;20075;-67
2023/02/16 03:48:21;;;;;;;75.95;40.55;;;2.50;99.90;;;;;;5110197;28;20024;-67
2023/02/16 03:50:47;;;;;;;71.28;37.70;;;2.50;99.90;;;;;;5110213;28;20032;-67
2023/02/16 03:53:12;;;;;;;70.00;35.55;;;2.40;99.90;;;;;;5109823;28;20024;-67
2023/02/16 03:55:41;;;;;;;74.82;36.38;;;2.30;99.90;;;;;;5104637;28;20390;-67
2023/02/16 03:58:09;;;;;;;77.13;39.08;;;2.30;99.90;;;;;;5096432;28;20047;-66
2023/02/16 04:00:35;;;;;;;74.22;36.47;;;2.30;99.90;;;;;;5096200;28;20367;-67
2023/02/16 04:03:02;;;;;;;65.78;34.33;;;2.20;99.90;;;;;;5095078;28;20077;-67
2023/02/16 04:05:28;;;;;;;75.07;35.72;;;2.20;99.90;;;;;;5094823;28;20035;-67
2023/02/16 04:07:54;;;;;;;72.00;36.83;;;2.10;99.90;;;;;;5094658;28;20020;-67
2023/02/16 04:10:20;;;;;;;70.53;34.92;;;2.00;99.90;;;;;;5096034;28;20036;-67
2023/02/16 04:12:46;;;;;;;69.32;35.63;;;1.90;99.90;;;;;;5096014;28;20039;-67
2023/02/16 04:15:15;;;;;;;72.47;34.10;;;1.90;99.90;;;;;;5095855;28;20107;-67
2023/02/16 04:17:40;;;;;;;70.10;34.45;;;1.90;99.90;;;;;;5095795;28;20093;-67
2023/02/16 04:20:08;;;;;;;68.20;35.25;;;1.90;99.90;;;;;;5095664;28;20028;-67
2023/02/16 04:22:33;;;;;;;68.75;34.67;;;1.90;99.90;;;;;;5095751;28;20097;-67
2023/02/16 04:24:59;;;;;;;72.07;34.63;;;1.90;99.90;;;;;;5095677;28;20024;-67
2023/02/16 04:27:24;;;;;;;75.15;36.50;;;2.00;99.90;;;;;;5095873;28;20138;-68
2023/02/16 04:29:50;;;;;;;71.55;35.25;;;2.10;99.90;;;;;;5095712;28;20448;-67
2023/02/16 04:32:16;;;;;;;67.65;33.03;;;2.10;99.90;;;;;;5095509;28;20523;-67
2023/02/16 04:34:41;;;;;;;74.05;35.22;;;2.10;99.90;;;;;;5095468;28;20040;-67
2023/02/16 04:37:07;;;;;;;65.05;33.60;;;2.10;99.90;;;;;;5095613;28;20036;-67
2023/02/16 04:39:32;;;;;;;63.15;31.15;;;2.00;99.90;;;;;;5094389;28;20036;-67
2023/02/16 04:41:58;;;;;;;70.55;34.08;;;2.00;99.90;;;;;;5095395;28;20027;-67
2023/02/16 04:44:24;;;;;;;69.88;34.03;;;1.90;99.90;;;;;;5095097;28;20036;-67
2023/02/16 04:46:49;;;;;;;62.63;31.50;;;1.80;99.90;;;;;;5095239;28;20132;-67
2023/02/16 04:49:15;;;;;;;71.95;33.63;;;1.70;99.90;;;;;;5095001;28;20035;-67
2023/02/16 04:51:40;;;;;;;69.57;32.58;;;1.70;99.90;;;;;;5095114;28;20016;-67
2023/02/16 04:54:06;;;;;;;70.25;33.60;;;1.70;99.90;;;;;;5095151;28;20036;-67
2023/02/16 04:56:32;;;;;;;78.85;36.05;;;1.60;99.90;;;;;;5095007;28;20024;-67
2023/02/16 04:58:57;;;;;;;65.97;34.92;;;1.60;99.90;;;;;;5094809;28;20036;-67
2023/02/16 05:01:25;;;;;;;74.20;34.92;;;1.60;99.90;;;;;;5095128;28;20032;-67
2023/02/16 05:03:51;;;;;;;78.03;38.15;;;1.50;99.90;;;;;;5095084;28;20032;-67
2023/02/16 05:06:17;;;;;;;75.05;36.92;;;1.70;99.90;;;;;;5094783;28;20051;-67
2023/02/16 05:08:43;;;;;;;67.72;34.50;;;1.60;99.90;;;;;;5093892;28;20111;-67
2023/02/16 05:16:43;;;;;;;70.80;35.25;;;1.30;99.90;;;;;;5094479;28;20027;-67
2023/02/16 05:19:08;;;;;;;66.45;33.53;;;1.20;99.90;;;;;;5094622;28;20050;-68
2023/02/16 05:21:34;;;;;;;131.13;67.00;;;1.20;99.90;;;;;;5094680;28;20482;-67
2023/02/16 05:24:03;;;;;;;108.88;54.22;;;1.20;99.90;;;;;;5094492;28;20028;-67
2023/02/16 05:26:29;;;;;;;95.88;48.90;;;1.20;99.90;;;;;;5093419;28;20063;-67
2023/02/16 05:28:55;;;;;;;79.97;39.08;;;1.20;99.90;;;;;;5094672;28;20020;-67
2023/02/16 05:31:22;;;;;;;80.80;39.40;;;1.20;99.90;;;;;;5094379;28;20016;-67
2023/02/16 05:33:47;;;;;;;82.65;38.10;;;1.20;99.90;;;;;;5094435;28;20035;-67
2023/02/16 05:36:13;;;;;;;80.75;38.53;;;1.20;99.90;;;;;;5094067;28;20024;-67
2023/02/16 05:38:38;;;;;;;74.10;36.60;;;1.20;99.90;;;;;;5094397;28;20048;-66
2023/02/16 05:41:04;;;;;;;70.20;35.58;;;1.20;99.90;;;;;;5094239;28;20078;-66
2023/02/16 05:43:30;;;;;;;77.07;36.47;;;1.20;99.90;;;;;;5093892;28;20035;-67
2023/02/16 05:45:55;;;;;;;76.10;35.38;;;1.20;99.90;;;;;;5094149;28;20432;-67
2023/02/16 05:48:21;;;;;;;70.47;34.78;;;1.20;99.90;;;;;;5094325;28;20032;-67
2023/02/16 05:50:46;;;;;;;79.57;36.55;;;1.20;99.90;;;;;;5093963;28;20393;-67
2023/02/16 05:53:12;;;;;;;74.95;36.38;;;1.10;99.90;;;;;;5093799;28;20028;-66
2023/02/16 05:55:38;;;;;;;70.47;33.88;;;1.20;99.90;;;;;;5094102;28;20085;-67
2023/02/16 05:58:03;;;;;;;71.72;34.70;;;1.10;99.90;;;;;;5093852;28;20039;-66
2023/02/16 06:00:32;;;;;;;75.35;35.97;;;1.10;99.90;;;;;;5093792;28;20028;-66
2023/02/16 06:02:59;;;;;;;76.32;36.35;;;1.00;99.90;;;;;;5093852;28;20032;-67
2023/02/16 06:05:25;;;;;;;81.63;36.90;;;0.90;99.90;;;;;;5093673;28;20044;-67
2023/02/16 06:07:50;;;;;;;75.22;36.72;;;0.80;99.90;;;;;;5092847;28;20028;-67
2023/02/16 06:10:17;;;;;;;77.75;37.83;;;0.90;99.90;;;;;;5093581;28;20473;-67
2023/02/16 06:12:43;;;;;;;87.35;40.78;;;1.00;99.90;;;;;;5093656;28;20474;-67
2023/02/16 06:15:09;;;;;;;80.70;37.50;;;1.00;99.90;;;;;;5093779;28;20078;-67
2023/02/16 06:17:34;;;;;;;77.10;36.75;;;1.00;99.90;;;;;;5093592;28;20051;-67
2023/02/16 06:20:00;;;;;;;83.00;37.97;;;1.00;99.90;;;;;;5093361;28;20038;-67
2023/02/16 06:22:26;;;;;;;78.38;36.88;;;1.00;99.90;;;;;;5093536;28;20032;-67
2023/02/16 06:24:51;;;;;;;81.57;37.60;;;0.90;99.90;;;;;;5093637;28;20334;-67
2023/02/16 06:27:17;;;;;;;83.40;38.15;;;0.90;99.90;;;;;;5093594;28;20031;-67
2023/02/16 06:29:42;;;;;;;81.80;37.83;;;0.80;99.90;;;;;;5093375;28;20027;-67
2023/02/16 06:32:08;;;;;;;76.25;38.00;;;0.80;99.90;;;;;;5093642;28;20115;-67
2023/02/16 06:34:33;;;;;;;82.20;38.65;;;0.80;99.90;;;;;;5093540;28;20035;-66
2023/02/16 06:36:59;;;;;;;93.13;40.88;;;0.80;99.90;;;;;;5093489;28;20089;-67
2023/02/16 06:39:24;;;;;;;79.25;36.88;;;0.90;99.90;;;;;;5093336;28;20092;-67
2023/02/16 06:41:50;;;;;;;77.55;36.92;;;0.90;99.90;;;;;;5093313;28;20113;-67
2023/02/16 06:44:16;;;;;;;86.53;39.15;;;0.90;99.90;;;;;;5093093;28;20052;-67
2023/02/16 06:46:43;;;;;;;81.47;37.50;;;0.90;99.90;;;;;;5093019;28;20047;-67
2023/02/16 06:49:12;;;;;;;78.13;38.88;;;1.00;99.90;;;;;;5093388;28;20035;-67
2023/02/16 06:51:37;;;;;;;82.68;39.88;;;1.10;99.90;;;;;;5091929;28;20028;-67
2023/02/16 06:54:03;;;;;;;84.90;39.13;;;1.40;99.90;;;;;;5093222;28;20385;-67
2023/02/16 06:56:29;;;;;;;94.35;39.63;;;1.60;99.90;;;;;;5093013;28;20032;-67
2023/02/16 06:58:54;;;;;;;86.80;41.35;;;1.60;99.90;;;;;;5093122;28;20053;-67
2023/02/16 07:01:21;;;;;;;91.30;41.67;;;1.80;99.90;;;;;;5093288;28;20032;-66
2023/02/16 07:03:49;;;;;;;83.47;40.20;;;2.00;99.90;;;;;;5092865;28;20032;-67
2023/02/16 07:06:15;;;;;;;81.85;40.58;;;2.20;99.90;;;;;;5093076;28;20103;-67
2023/02/16 07:08:40;;;;;;;90.03;40.25;;;2.20;99.90;;;;;;5092846;28;20024;-67
2023/02/16 07:11:06;;;;;;;85.65;39.33;;;2.40;99.90;;;;;;5092732;28;20060;-67
2023/02/16 07:13:35;;;;;;;88.72;40.75;;;2.60;99.90;;;;;;5092875;28;20024;-67
2023/02/16 07:16:01;;;;;;;83.57;39.95;;;3.20;99.90;;;;;;5092910;28;20024;-67
2023/02/16 07:18:27;;;;;;;72.97;35.75;;;;;;;;;;5092952;28;20028;-67
2023/02/16 07:20:53;;;;;;;72.95;36.92;;;4.60;99.90;;;;;;5092869;28;20034;-67
2023/02/16 07:23:20;;;;;;;66.18;35.30;;;4.70;99.90;;;;;;5092726;28;20142;-68
2023/02/16 07:25:45;;;;;;;68.57;32.33;;;5.30;99.90;;;;;;5092322;28;20028;-67
2023/02/16 07:28:11;;;;;;;57.30;30.83;;;5.20;99.90;;;;;;5092230;28;20386;-67
2023/02/16 07:30:37;;;;;;;68.45;33.90;;;5.40;99.90;;;;;;5092634;28;20032;-67
2023/02/16 07:33:03;;;;;;;55.22;30.75;;;5.60;99.90;;;;;;5096187;28;20081;-67
2023/02/16 07:35:28;;;;;;;64.93;33.53;;;5.30;99.90;;;;;;5096367;28;20039;-67
2023/02/16 07:37:54;;;;;;;60.80;31.95;;;5.10;99.90;;;;;;5094284;28;20028;-68
2023/02/16 07:40:20;;;;;;;61.85;32.83;;;4.90;99.90;;;;;;5096044;28;20107;-67
2023/02/16 07:42:45;;;;;;;61.88;32.35;;;4.80;99.90;;;;;;5096302;28;20038;-67
2023/02/16 07:45:11;;;;;;;60.45;31.38;;;4.70;99.90;;;;;;5095210;28;20048;-67
2023/02/16 07:47:36;;;;;;;59.22;30.60;;;4.70;99.90;;;;;;5096272;28;20035;-67
2023/02/16 07:50:02;;;;;;;62.22;32.88;;;4.70;99.90;;;;;;5095898;28;20036;-67
2023/02/16 07:52:29;;;;;;;62.28;33.05;;;4.70;99.90;;;;;;5096188;28;20031;-67
2023/02/16 07:54:57;;;;;;;55.30;30.55;;;4.70;99.90;;;;;;5096199;28;20016;-67
2023/02/16 07:57:23;;;;;;;62.72;33.03;;;4.70;99.90;;;;;;5096052;28;20397;-67
2023/02/16 07:59:51;;;;;;;62.25;31.67;;;4.80;99.90;;;;;;5095875;28;20032;-67
2023/02/16 08:02:18;;;;;;;58.00;31.67;;;4.90;99.90;;;;;;5095266;28;20402;-68
2023/02/16 08:04:44;;;;;;;62.38;32.92;;;4.90;99.90;;;;;;5095896;28;20020;-67
2023/02/16 08:07:13;;;;;;;62.05;32.38;;;5.00;99.90;;;;;;5096081;28;20024;-68
2023/02/16 08:09:39;;;;;;;57.60;33.72;;;5.00;99.90;;;;;;5094780;28;20085;-68
2023/02/16 08:12:08;;;;;;;60.47;31.88;;;4.90;99.90;;;;;;5095695;28;20040;-69
2023/02/16 08:14:34;;;;;;;64.25;33.15;;;4.90;99.90;;;;;;5095588;28;20075;-69
2023/02/16 08:17:00;;;;;;;70.07;34.10;;;4.90;99.90;;;;;;5095011;28;20520;-69
2023/02/16 08:19:28;;;;;;;67.75;34.00;;;4.90;99.90;;;;;;5095664;28;20063;-68
2023/02/16 08:21:53;;;;;;;58.25;31.55;;;4.90;99.90;;;;;;5095755;28;20095;-68
2023/02/16 08:24:19;;;;;;;58.47;32.92;;;5.00;99.90;;;;;;5094246;28;20031;-68
2023/02/16 08:26:48;;;;;;;61.22;34.50;;;5.00;99.90;;;;;;5095313;28;20183;-70
2023/02/16 08:29:16;;;;;;;58.05;33.05;;;5.20;99.90;;;;;;5095232;28;20039;-69
2023/02/16 08:31:44;;;;;;;64.68;33.03;;;5.20;99.90;;;;;;5094109;28;20028;-68
2023/02/16 08:34:12;;;;;;;60.63;33.30;;;5.30;99.90;;;;;;5095599;28;20057;-69
2023/02/16 08:36:38;;;;;;;60.33;33.08;;;5.50;99.90;;;;;;5093720;28;20435;-68
2023/02/16 08:39:10;;;;;;;56.42;31.35;;;5.60;99.90;;;;;;5085744;28;20044;-69
2023/02/16 08:41:37;;;;;;;62.25;32.10;;;5.80;99.90;;;;;;5095020;28;20047;-70
2023/02/16 08:44:05;;;;;;;57.78;33.70;;;6.10;99.90;;;;;;5093699;28;20517;-69
2023/02/16 08:46:32;;;;;;;65.00;33.25;;;6.20;99.90;;;;;;5094026;28;20378;-71
2023/02/16 08:48:59;;;;;;;65.38;32.28;;;6.40;99.90;;;;;;5094788;28;20028;-70
2023/02/16 08:51:27;;;;;;;68.55;33.85;;;6.60;99.90;;;;;;5094919;28;20054;-72
2023/02/16 08:53:53;;;;;;;72.85;35.90;;;6.70;99.90;;;;;;5094042;28;20035;-71
2023/02/16 08:56:18;;;;;;;63.55;32.90;;;6.80;99.90;;;;;;5094874;28;20416;-71
2023/02/16 08:58:45;;;;;;;68.65;34.40;;;6.80;99.90;;;;;;5094737;28;20032;-70
2023/02/16 09:01:12;;;;;;;58.63;31.67;;;7.00;99.90;;;;;;5094222;28;20032;-71
2023/02/16 09:03:41;;;;;;;62.60;33.75;;;7.00;99.90;;;;;;5093442;28;20078;-70
2023/02/16 09:06:09;;;;;;;64.47;34.90;;;7.20;99.90;;;;;;5094173;28;20040;-71
2023/02/16 09:08:36;;;;;;;58.22;33.67;;;7.40;99.90;;;;;;5094846;28;20432;-69
2023/02/16 09:11:04;;;;;;;51.13;29.35;;;7.70;99.90;;;;;;5094302;28;20111;-68
2023/02/16 09:13:29;;;;;;;52.75;30.67;;;8.00;99.90;;;;;;5094776;28;20052;-70
2023/02/16 09:16:01;;;;;;;60.13;33.45;;;8.10;99.90;;;;;;5093361;28;20520;-70
2023/02/16 09:18:27;;;;;;;59.80;29.48;;;8.10;99.90;;;;;;5093146;28;20024;-68
2023/02/16 09:20:52;;;;;;;57.60;28.52;;;8.20;99.90;;;;;;5094318;28;20032;-68
2023/02/16 09:23:19;;;;;;;50.53;27.23;;;8.20;99.90;;;;;;5094208;28;20048;-68
2023/02/16 09:25:44;;;;;;;51.13;27.77;;;8.30;99.90;;;;;;5094100;28;20069;-68
2023/02/16 09:28:10;;;;;;;55.33;28.00;;;8.60;99.90;;;;;;5094043;28;20423;-67
2023/02/16 09:30:37;;;;;;;47.53;27.02;;;8.90;99.90;;;;;;5094093;28;20103;-68
2023/02/16 09:33:03;;;;;;;41.53;25.33;;;9.10;99.90;;;;;;5094373;28;20086;-70
2023/02/16 09:35:28;;;;;;;43.40;25.30;;;9.50;99.90;;;;;;5094258;28;20052;-68
2023/02/16 09:37:54;;;;;;;49.53;24.48;;;;;;;;;;5093441;28;20497;-68
2023/02/16 09:40:20;;;;;;;49.50;27.17;;;9.70;99.90;;;;;;5093794;28;20505;-68
2023/02/16 09:43:26;;;;;;;46.45;25.90;;;9.70;99.90;;;;;;5093612;28;20031;-69
2023/02/16 09:45:53;;;;;;;49.88;26.17;;;9.60;99.90;;;;;;5090537;28;20044;-68
2023/02/16 09:48:26;;;;;;;50.13;26.30;;;9.70;99.90;;;;;;5093883;28;20035;-69
2023/02/16 09:50:53;;;;;;;49.00;26.88;;;9.60;99.90;;;;;;5093783;28;20024;-70
2023/02/16 09:53:27;;;;;;;49.65;27.30;;;9.90;99.90;;;;;;5092562;28;20038;-70
2023/02/16 09:56:05;;;;;;;47.03;25.23;;;10.00;99.90;;;;;;5093551;28;20020;-68
2023/02/16 09:59:11;;;;;;;48.90;25.80;;;10.10;99.90;;;;;;5093864;28;20505;-68
2023/02/16 10:02:10;;;;;;;47.50;25.90;;;10.50;99.90;;;;;;5093135;28;20032;-68
2023/02/16 10:10:22;;;;;;;45.47;25.27;;;11.80;99.90;;;;;;5070114;28;20387;-68
2023/02/16 10:12:59;;;;;;;39.70;24.45;;;11.90;99.90;;;;;;5051809;28;20061;-68
2023/02/16 10:15:28;;;;;;;45.60;25.08;;;11.90;99.90;;;;;;5052569;28;20025;-67
2023/02/16 10:18:01;;;;;;;46.60;25.58;;;11.60;99.90;;;;;;5070295;28;20478;-68
2023/02/16 10:20:33;;;;;;;39.83;23.98;;;11.70;99.90;;;;;;5070328;28;20100;-68
2023/02/16 10:23:28;;;;;;;40.95;24.42;;;11.50;99.90;;;;;;5055198;28;20463;-69
2023/02/16 10:26:01;;;;;;;41.85;24.63;;;11.30;99.90;;;;;;5050151;28;20595;-67
2023/02/16 10:28:30;;;;;;;;;;;11.10;99.90;;;;;;5052088;28;20033;-68
2023/02/16 10:31:18;;;;;;;34.92;22.98;;;11.00;99.90;;;;;;5056424;28;19978;-69
2023/02/16 10:33:54;;;;;;;43.50;25.05;;;10.90;99.90;;;;;;5068217;28;20043;-67
2023/02/16 10:36:37;;;;;;;43.83;24.73;;;10.80;99.90;;;;;;5069827;28;20508;-68
2023/02/16 10:39:23;;;;;;;40.30;24.48;;;10.80;99.90;;;;;;5069976;28;20031;-68
2023/02/16 10:41:58;;;;;;;46.78;26.70;;;10.80;99.90;;;;;;5067694;28;20037;-67
2023/02/16 10:44:39;;;;;;;44.03;26.02;;;10.70;99.90;;;;;;5057714;28;20499;-68
2023/02/16 10:47:12;;;;;;;40.17;24.35;;;10.60;99.90;;;;;;5048272;28;20029;-68
2023/02/16 10:49:37;;;;;;;42.95;24.73;;;10.50;99.90;;;;;;5049683;28;20498;-68
2023/02/16 10:52:03;;;;;;;44.08;25.50;;;10.60;99.90;;;;;;5050782;28;20026;-68
2023/02/16 10:54:31;;;;;;;41.42;24.67;;;10.50;99.90;;;;;;5049495;28;20021;-68
2023/02/16 10:57:01;;;;;;;42.75;27.33;;;10.40;99.90;;;;;;5049891;28;20025;-67
2023/02/16 10:59:45;;;;;;;45.03;25.48;;;10.30;99.90;;;;;;5060478;28;20071;-69
2023/02/16 11:02:23;;;;;;;48.28;24.58;;;10.40;99.90;;;;;;5049652;28;20037;-69
2023/02/16 11:04:51;;;;;;;44.83;26.08;;;10.40;99.90;;;;;;5049486;28;20033;-69
2023/02/16 11:07:21;;;;;;;44.25;25.55;;;10.40;99.90;;;;;;5049438;28;20030;-70
2023/02/16 11:09:52;;;;;;;46.45;26.55;;;10.40;99.90;;;;;;5048737;28;20143;-68
2023/02/16 11:12:37;;;;;;;46.33;26.45;;;10.40;99.90;;;;;;5036672;28;20499;-69
2023/02/16 11:15:22;;;;;;;48.70;27.08;;;10.40;99.90;;;;;;5048999;28;20025;-68
2023/02/16 11:17:53;;;;;;;48.13;27.02;;;10.30;99.90;;;;;;5053942;28;20029;-68
2023/02/16 11:20:35;;;;;;;45.50;25.30;;;10.30;99.90;;;;;;5062568;28;20439;-69
2023/02/16 11:26:19;;;;;;;43.55;24.95;;;10.30;99.90;;;;;;5090406;28;20467;-67
2023/02/16 11:28:47;;;;;;;42.60;23.30;;;10.40;99.90;;;;;;5090438;28;20032;-67
2023/02/16 11:31:18;;;;;;;44.90;23.88;;;10.40;99.90;;;;;;5079376;28;20427;-67
2023/02/16 11:34:06;;;;;;;40.75;24.25;;;10.50;99.90;;;;;;5071212;28;20494;-70
2023/02/16 11:36:38;;;;;;;49.25;24.65;;;10.40;99.90;;;;;;5073582;28;20070;-68
2023/02/16 11:39:22;;;;;;;41.45;24.95;;;10.40;99.90;;;;;;5089890;28;20028;-69
2023/02/16 11:41:55;;;;;;;40.72;23.85;;;10.50;99.90;;;;;;5090066;28;20500;-68
2023/02/16 11:44:36;;;;;;;40.85;23.60;;;10.50;99.90;;;;;;5088057;28;20077;-69
2023/02/16 11:47:06;;;;;;;39.75;24.45;;;10.60;99.90;;;;;;5090253;28;20024;-68
2023/02/16 11:49:37;;;;;;;42.92;23.80;;;10.50;99.90;;;;;;5090211;28;20020;-67
2023/02/16 11:55:01;;;;;;;40.30;23.23;;;10.70;99.90;;;;;;5104216;27;20666;-67
2023/02/16 11:57:31;;;;;;;44.95;24.98;;;10.90;99.90;;;;;;5108251;28;20020;-69
2023/02/16 11:59:58;;;;;;;40.80;24.20;;;10.80;99.90;;;;;;5094528;28;20131;-67
2023/02/16 12:02:43;;;;;;;39.60;24.15;;;10.80;99.90;;;;;;5103350;28;20028;-67
2023/02/16 12:08:15;;;;;;;45.40;24.98;;;11.00;99.90;;;;;;5110742;27;20400;-68
2023/02/16 12:11:16;;;;;;;38.70;23.73;;;11.20;99.90;;;;;;5097930;28;20081;-67
2023/02/16 12:14:10;;;;;;;44.53;30.55;;;11.30;99.90;;;;;;5103612;28;20032;-67
2023/02/16 12:16:48;;;;;;;109.22;56.75;;;11.40;99.90;;;;;;5097726;28;20029;-69
2023/02/16 12:19:31;;;;;;;96.47;53.80;;;11.60;99.90;;;;;;5091526;28;20032;-67
2023/02/16 12:22:15;;;;;;;75.80;48.33;;;11.70;99.90;;;;;;5090617;28;20093;-67
2023/02/16 12:25:21;;;;;;;55.22;32.72;;;11.80;99.90;;;;;;5094349;28;20489;-68
2023/02/16 12:28:11;;;;;;;44.17;27.52;;;11.70;99.90;;;;;;5104215;28;20036;-67
2023/02/16 12:31:03;;;;;;;40.97;26.27;;;11.70;99.90;;;;;;5097841;28;20025;-65
2023/02/16 12:33:56;;;;;;;44.47;28.10;;;12.00;99.90;;;;;;5089869;28;20032;-65
2023/02/16 12:36:32;;;;;;;47.85;27.42;;;11.90;99.90;;;;;;5101394;28;20474;-65
2023/02/16 12:39:15;;;;;;;43.28;27.63;;;11.80;99.90;;;;;;5105045;28;20020;-65
2023/02/16 12:42:20;;;;;;;54.00;28.05;;;11.80;99.90;;;;;;5085591;28;20036;-65
2023/02/16 12:44:53;;;;;;;48.08;28.42;;;11.70;99.90;;;;;;5092331;28;20115;-66
2023/02/16 12:47:28;;;;;;;45.67;28.58;;;11.70;99.90;;;;;;5110388;28;20451;-67
2023/02/16 12:50:00;;;;;;;45.17;28.40;;;11.50;99.90;;;;;;5110216;28;20415;-67
2023/02/16 12:52:41;;;;;;;45.05;27.83;;;11.40;99.90;;;;;;5110114;28;20024;-67
2023/02/16 12:55:19;;;;;;;47.83;30.38;;;11.40;99.90;;;;;;5109244;28;20028;-67
2023/02/16 12:58:09;;;;;;;49.22;30.90;;;11.20;99.90;;;;;;5109681;28;20085;-67
2023/02/16 13:00:51;;;;;;;49.58;31.48;;;11.10;99.90;;;;;;5103077;28;20029;-69
2023/02/16 13:06:20;;;;;;;49.28;30.40;;;10.80;99.90;;;;;;5089867;27;20398;-69
2023/02/16 13:09:25;;;;;;;61.67;38.85;;;10.50;99.90;;;;;;5090509;28;20059;-67
2023/02/16 13:12:00;;;;;;;53.83;31.90;;;10.40;99.90;;;;;;5080789;28;20071;-68
2023/02/16 13:14:30;;;;;;;52.55;33.03;;;10.30;99.90;;;;;;5070036;28;20033;-68
2023/02/16 13:17:00;;;;;;;56.20;32.28;;;10.20;99.90;;;;;;5084409;28;20040;-68
2023/02/16 13:19:26;;;;;;;53.70;34.13;;;10.10;99.90;;;;;;5089666;28;20024;-69
2023/02/16 13:24:58;;;;;;;53.08;33.10;;;10.10;99.90;;;;;;5110731;27;20317;-68
2023/02/16 13:27:52;;;;;;;52.63;34.03;;;10.20;99.90;;;;;;5106167;28;20032;-68
2023/02/16 13:30:53;;;;;;;48.97;30.45;;;10.10;99.90;;;;;;5088109;28;20028;-68
2023/02/16 13:33:50;;;;;;;52.42;31.67;;;10.20;99.90;;;;;;5090415;28;20032;-68
2023/02/16 13:36:49;;;;;;;54.63;32.55;;;10.20;99.90;;;;;;5090089;28;20056;-68
2023/02/16 13:39:42;;;;;;;51.20;32.33;;;10.20;99.90;;;;;;5069849;28;20498;-68
2023/02/16 13:42:47;;;;;;;53.40;32.53;;;10.10;99.90;;;;;;5098495;28;20115;-68
2023/02/16 13:45:19;;;;;;;53.90;33.20;;;10.20;99.90;;;;;;5097294;28;20493;-66
2023/02/16 13:47:45;;;;;;;53.85;33.22;;;10.30;99.90;;;;;;5104632;28;20028;-69
2023/02/16 13:50:30;;;;;;;52.45;31.98;;;10.30;99.90;;;;;;5107115;28;20081;-70
2023/02/16 13:53:07;;;;;;;54.45;32.97;;;10.40;99.90;;;;;;5110143;28;20023;-70
2023/02/16 13:55:37;;;;;;;54.75;31.67;;;10.40;99.90;;;;;;5110072;28;20445;-69
2023/02/16 13:58:15;;;;;;;55.20;32.20;;;10.50;99.90;;;;;;5096313;28;20068;-69
2023/02/16 14:00:49;;;;;;;50.58;32.13;;;10.50;99.90;;;;;;5095729;28;20032;-69
2023/02/16 14:06:36;;;;;;;52.05;34.58;;;10.50;99.90;;;;;;5096669;27;20398;-69
2023/02/16 14:14:37;;;;;;;56.45;34.00;;;10.40;99.90;;;;;;5142988;27;20306;-70
2023/02/16 14:17:24;;;;;;;53.83;32.90;;;10.70;99.90;;;;;;5131148;28;20027;-69
2023/02/16 14:22:56;;;;;;;51.95;31.23;;;10.70;99.90;;;;;;5089339;28;20396;-69